createdAt,value
2022-10-13T00:01:43.480Z,7.97
2022-10-13T00:04:13.236Z,8.57
2022-10-13T00:06:42.980Z,8.63
2022-10-13T00:09:15.272Z,7.93
2022-10-13T00:11:45.018Z,8.53
2022-10-13T00:14:14.811Z,8.17
2022-10-13T00:16:44.549Z,8.00
2022-10-13T00:19:15.234Z,8.50
2022-10-13T00:21:45.148Z,8.00
2022-10-13T00:24:17.493Z,7.73
2022-10-13T00:26:47.208Z,7.20
2022-10-13T00:29:22.009Z,8.93
2022-10-13T00:31:51.715Z,8.00
2022-10-13T00:34:21.400Z,8.47
2022-10-13T00:36:51.094Z,8.30
2022-10-13T00:39:23.440Z,7.97
2022-10-13T00:41:54.502Z,8.70
2022-10-13T00:45:02.098Z,8.00
2022-10-13T00:47:36.432Z,8.03
2022-10-13T00:50:09.556Z,7.60
2022-10-13T00:52:40.528Z,6.90
2022-10-13T00:55:16.329Z,7.13
2022-10-13T00:57:54.625Z,8.10
2022-10-13T01:00:32.792Z,7.30
2022-10-13T01:03:03.136Z,7.57
2022-10-13T01:05:33.571Z,8.37
2022-10-13T01:08:04.211Z,7.43
2022-10-13T01:10:48.435Z,8.30
2022-10-13T01:13:29.709Z,8.93
2022-10-13T01:16:12.959Z,7.97
2022-10-13T01:18:49.038Z,8.00
2022-10-13T01:21:31.713Z,9.10
2022-10-13T01:24:20.102Z,8.23
2022-10-13T01:27:09.842Z,8.63
2022-10-13T01:30:13.584Z,7.77
2022-10-13T01:33:08.602Z,7.77
2022-10-13T01:35:52.155Z,8.07
2022-10-13T01:38:29.382Z,7.53
2022-10-13T01:41:04.852Z,7.43
2022-10-13T01:43:41.141Z,8.93
2022-10-13T01:46:17.167Z,8.20
2022-10-13T01:48:48.057Z,8.67
2022-10-13T01:51:22.580Z,8.50
2022-10-13T01:53:55.937Z,8.53
2022-10-13T01:56:25.679Z,8.93
2022-10-13T01:58:58.534Z,9.20
2022-10-13T02:01:48.106Z,10.40
2022-10-13T02:04:37.135Z,8.70
2022-10-13T02:07:18.422Z,9.60
2022-10-13T02:10:00.753Z,8.57
2022-10-13T02:12:35.495Z,9.47
2022-10-13T02:15:07.484Z,9.43
2022-10-13T02:17:44.679Z,9.40
2022-10-13T02:20:14.970Z,8.60
2022-10-13T02:22:48.282Z,8.63
2022-10-13T02:25:18.105Z,9.50
2022-10-13T02:27:47.865Z,9.03
2022-10-13T02:30:25.314Z,8.83
2022-10-13T02:32:57.758Z,9.60
2022-10-13T02:35:27.472Z,10.20
2022-10-13T02:37:57.193Z,10.03
2022-10-13T02:40:27.045Z,11.13
2022-10-13T02:42:56.912Z,11.97
2022-10-13T02:45:26.757Z,12.67
2022-10-13T02:48:00.668Z,11.20
2022-10-13T02:50:30.610Z,13.70
2022-10-13T02:53:01.641Z,12.30
2022-10-13T02:55:31.442Z,13.13
2022-10-13T02:58:01.193Z,13.00
2022-10-13T03:00:31.028Z,12.57
2022-10-13T03:03:03.481Z,13.03
2022-10-13T03:05:33.227Z,12.70
2022-10-13T03:08:03.163Z,12.43
2022-10-13T03:10:33.205Z,12.70
2022-10-13T03:13:02.907Z,12.73
2022-10-13T03:15:32.705Z,13.50
2022-10-13T03:18:07.912Z,13.80
2022-10-13T03:20:37.634Z,13.47
2022-10-13T03:23:07.367Z,13.60
2022-10-13T03:25:37.310Z,14.13
2022-10-13T03:28:07.194Z,15.07
2022-10-13T03:30:39.204Z,13.27
2022-10-13T03:33:11.526Z,14.60
2022-10-13T03:35:41.261Z,14.93
2022-10-13T03:38:11.358Z,14.30
2022-10-13T03:40:41.934Z,13.80
2022-10-13T03:43:11.639Z,15.53
2022-10-13T03:45:41.364Z,13.33
2022-10-13T03:48:13.691Z,13.47
2022-10-13T03:50:43.452Z,14.40
2022-10-13T03:53:13.186Z,14.33
2022-10-13T03:55:42.978Z,15.10
2022-10-13T03:58:12.704Z,12.90
2022-10-13T04:00:45.602Z,13.77
2022-10-13T04:03:18.703Z,13.23
2022-10-13T04:05:49.156Z,14.10
2022-10-13T04:08:19.920Z,13.17
2022-10-13T04:10:49.799Z,13.50
2022-10-13T04:13:19.506Z,13.80
2022-10-13T04:15:51.175Z,14.60
2022-10-13T04:18:23.859Z,15.00
2022-10-13T04:20:53.598Z,13.93
2022-10-13T04:23:23.367Z,14.23
2022-10-13T04:25:53.653Z,14.90
2022-10-13T04:28:23.437Z,14.10
2022-10-13T04:30:53.332Z,15.30
2022-10-13T04:33:25.632Z,15.47
2022-10-13T04:35:55.308Z,14.70
2022-10-13T04:38:25.043Z,14.40
2022-10-13T04:40:55.068Z,16.50
2022-10-13T04:43:24.835Z,16.37
2022-10-13T04:45:55.264Z,16.47
2022-10-13T04:48:27.636Z,16.10
2022-10-13T04:51:02.358Z,15.60
2022-10-13T04:53:32.652Z,15.77
2022-10-13T04:56:04.966Z,15.67
2022-10-13T04:58:35.385Z,16.77
2022-10-13T05:01:05.768Z,16.33
2022-10-13T05:03:38.142Z,15.53
2022-10-13T05:06:08.456Z,15.43
2022-10-13T05:08:38.229Z,16.53
2022-10-13T05:11:10.004Z,17.07
2022-10-13T05:13:43.015Z,15.80
2022-10-13T05:16:21.039Z,16.50
2022-10-13T05:18:57.058Z,15.40
2022-10-13T05:21:32.808Z,16.00
2022-10-13T05:24:06.373Z,15.87
2022-10-13T05:26:38.775Z,15.40
2022-10-13T05:29:09.514Z,16.40
2022-10-13T05:31:43.763Z,18.40
2022-10-13T05:34:17.092Z,15.50
2022-10-13T05:36:47.888Z,16.33
2022-10-13T05:39:17.603Z,17.13
2022-10-13T05:41:47.321Z,17.33
2022-10-13T05:44:22.260Z,16.63
2022-10-13T05:46:58.347Z,17.23
2022-10-13T05:49:39.858Z,17.13
2022-10-13T05:52:15.659Z,16.40
2022-10-13T05:54:52.802Z,17.40
2022-10-13T05:57:25.407Z,16.93
2022-10-13T06:00:01.229Z,16.37
2022-10-13T06:02:37.858Z,16.77
2022-10-13T06:05:16.486Z,15.00
2022-10-13T06:07:48.284Z,17.10
2022-10-13T06:10:19.361Z,15.70
2022-10-13T06:12:50.313Z,15.33
2022-10-13T06:15:23.301Z,16.07
2022-10-13T06:17:56.550Z,17.90
2022-10-13T06:20:30.634Z,16.30
2022-10-13T06:23:00.629Z,15.23
2022-10-13T06:25:32.360Z,15.37
2022-10-13T06:28:03.197Z,15.90
2022-10-13T06:30:34.012Z,15.80
2022-10-13T06:33:05.904Z,16.53
2022-10-13T06:35:39.636Z,15.90
2022-10-13T06:38:15.054Z,16.53
2022-10-13T06:40:45.150Z,15.40
2022-10-13T06:43:14.959Z,16.47
2022-10-13T06:45:46.818Z,16.47
2022-10-13T06:48:19.958Z,15.33
2022-10-13T06:50:52.298Z,15.70
2022-10-13T06:53:23.073Z,16.40
2022-10-13T06:55:53.752Z,15.80
2022-10-13T06:58:24.496Z,15.73
2022-10-13T07:01:00.361Z,15.70
2022-10-13T07:03:32.208Z,15.23
2022-10-13T07:06:07.961Z,16.20
2022-10-13T07:08:38.323Z,15.30
2022-10-13T07:11:15.389Z,15.07
2022-10-13T07:13:46.958Z,15.37
2022-10-13T07:16:22.994Z,15.40
2022-10-13T07:18:57.010Z,16.17
2022-10-13T07:21:29.358Z,15.70
2022-10-13T07:24:04.774Z,15.20
2022-10-13T07:26:36.725Z,15.80
2022-10-13T07:29:07.574Z,14.90
2022-10-13T07:31:39.441Z,15.80
2022-10-13T07:34:11.134Z,16.00
2022-10-13T07:36:43.578Z,15.27
2022-10-13T07:39:15.287Z,15.70
2022-10-13T07:41:48.771Z,15.63
2022-10-13T07:44:21.794Z,15.20
2022-10-13T07:46:53.716Z,13.93
2022-10-13T07:49:23.844Z,15.73
2022-10-13T07:51:56.171Z,13.83
2022-10-13T07:54:27.614Z,15.37
2022-10-13T07:56:59.696Z,14.90
2022-10-13T07:59:29.442Z,15.20
2022-10-13T08:02:01.627Z,14.97
2022-10-13T08:04:38.372Z,13.70
2022-10-13T08:07:11.530Z,14.10
2022-10-13T08:09:42.433Z,15.80
2022-10-13T08:12:12.403Z,14.00
2022-10-13T08:14:42.435Z,14.70
2022-10-13T08:17:14.000Z,13.83
2022-10-13T08:19:43.720Z,13.70
2022-10-13T08:22:16.119Z,13.47
2022-10-13T08:24:45.963Z,12.70
2022-10-13T08:27:23.512Z,12.90
2022-10-13T08:29:57.473Z,12.40
2022-10-13T08:32:27.409Z,11.70
2022-10-13T08:34:58.246Z,12.13
2022-10-13T08:37:35.593Z,13.23
2022-10-13T08:40:05.795Z,11.70
2022-10-13T08:42:38.954Z,11.80
2022-10-13T08:45:39.326Z,11.70
2022-10-13T08:48:03.595Z,10.90
2022-10-13T08:50:42.227Z,12.07
2022-10-13T08:53:21.951Z,11.60
2022-10-13T08:55:57.855Z,10.60
2022-10-13T08:58:32.634Z,11.17
2022-10-13T09:01:15.660Z,10.70
2022-10-13T09:03:51.714Z,10.70
2022-10-13T09:06:31.767Z,10.10
2022-10-13T09:09:10.503Z,11.10
2022-10-13T09:11:42.046Z,10.80
2022-10-13T09:14:13.950Z,10.67
2022-10-13T09:16:46.879Z,11.70
2022-10-13T09:19:27.411Z,10.23
2022-10-13T09:21:59.255Z,9.40
2022-10-13T09:24:31.665Z,10.40
2022-10-13T09:27:14.087Z,11.00
2022-10-13T09:29:44.686Z,11.60
2022-10-13T09:32:19.676Z,10.40
2022-10-13T09:34:52.793Z,9.50
2022-10-13T09:37:25.676Z,10.27
2022-10-13T09:40:16.911Z,9.27
2022-10-13T09:42:53.915Z,8.47
2022-10-13T09:45:30.299Z,9.10
2022-10-13T09:48:07.736Z,10.07
2022-10-13T09:50:39.784Z,10.00
2022-10-13T09:53:25.593Z,8.90
2022-10-13T09:56:24.178Z,9.53
2022-10-13T09:59:01.984Z,9.03
2022-10-13T10:01:37.734Z,9.40
2022-10-13T10:04:12.421Z,9.00
2022-10-13T10:06:43.809Z,9.70
2022-10-13T10:09:28.594Z,9.30
2022-10-13T10:12:08.032Z,9.03
2022-10-13T10:14:40.275Z,9.17
2022-10-13T10:17:23.110Z,9.30
2022-10-13T10:20:04.094Z,9.20
2022-10-13T10:22:41.196Z,9.47
2022-10-13T10:25:33.322Z,10.57
2022-10-13T10:28:36.169Z,9.30
2022-10-13T10:31:21.877Z,9.70
2022-10-13T10:34:03.296Z,9.60
2022-10-13T10:36:44.204Z,10.13
2022-10-13T10:39:26.263Z,10.00
2022-10-13T10:42:05.376Z,9.77
2022-10-13T10:44:42.398Z,10.53
2022-10-13T10:47:24.428Z,9.17
2022-10-13T10:49:58.025Z,8.67
2022-10-13T10:52:35.311Z,9.50
2022-10-13T10:55:20.371Z,8.53
2022-10-13T10:57:58.854Z,8.97
2022-10-13T11:00:31.800Z,8.30
2022-10-13T11:03:06.527Z,10.07
2022-10-13T11:06:03.031Z,9.30
2022-10-13T11:08:42.445Z,8.27
2022-10-13T11:11:37.974Z,9.30
2022-10-13T11:14:31.975Z,8.00
2022-10-13T11:17:13.811Z,7.67
2022-10-13T11:19:44.633Z,8.40
2022-10-13T11:22:23.091Z,8.70
2022-10-13T11:24:59.194Z,8.30
2022-10-13T11:27:41.437Z,8.40
2022-10-13T11:30:47.450Z,8.63
2022-10-13T11:33:39.099Z,7.53
2022-10-13T11:36:33.161Z,7.40
2022-10-13T11:39:20.663Z,8.13
2022-10-13T11:41:57.648Z,8.07
2022-10-13T11:44:33.120Z,8.13
2022-10-13T11:47:15.527Z,8.53
2022-10-13T11:50:01.254Z,9.60
2022-10-13T11:52:50.725Z,8.63
2022-10-13T11:55:35.051Z,8.80
2022-10-13T11:58:27.033Z,8.53
2022-10-13T12:01:01.726Z,8.15
2022-10-13T12:03:39.883Z,7.87
2022-10-13T12:06:43.715Z,8.00
2022-10-13T12:09:28.133Z,8.03
2022-10-13T12:12:03.739Z,7.60
2022-10-13T12:14:40.000Z,8.97
2022-10-13T12:17:24.305Z,8.47
2022-10-13T12:19:54.654Z,8.33
2022-10-13T12:22:27.131Z,9.00
2022-10-13T12:25:02.247Z,8.13
2022-10-13T12:27:36.383Z,7.80
2022-10-13T12:30:22.426Z,8.20
2022-10-13T12:32:58.430Z,7.17
2022-10-13T12:35:30.304Z,8.07
2022-10-13T12:38:09.391Z,7.70
2022-10-13T12:40:39.437Z,7.40
2022-10-13T12:43:21.224Z,6.67
2022-10-13T12:45:51.967Z,7.67
2022-10-13T12:48:35.919Z,6.17
2022-10-13T12:51:21.467Z,6.90
2022-10-13T12:53:53.990Z,7.30
2022-10-13T12:56:32.459Z,5.07
2022-10-13T12:59:03.675Z,6.17
2022-10-13T13:01:35.618Z,6.80
2022-10-13T13:04:19.578Z,6.57
2022-10-13T13:06:57.219Z,6.10
2022-10-13T13:09:33.277Z,5.77
2022-10-13T13:12:24.077Z,6.03
2022-10-13T13:14:55.213Z,6.40
2022-10-13T13:17:56.572Z,6.90
2022-10-13T13:20:24.232Z,6.10
2022-10-13T13:22:53.964Z,5.80
2022-10-13T13:25:27.117Z,5.43
2022-10-13T13:27:57.014Z,6.07
2022-10-13T13:30:31.365Z,6.90
2022-10-13T13:33:02.352Z,5.90
2022-10-13T13:35:33.281Z,5.63
2022-10-13T13:38:03.714Z,5.53
2022-10-13T13:40:36.021Z,5.30
2022-10-13T13:43:09.245Z,5.00
2022-10-13T13:45:40.303Z,5.30
2022-10-13T13:48:13.231Z,5.63
2022-10-13T13:50:43.578Z,5.47
2022-10-13T13:53:14.771Z,4.60
2022-10-13T13:55:50.361Z,5.00
2022-10-13T13:58:22.390Z,4.30
2022-10-13T14:00:52.865Z,5.43
2022-10-13T14:03:24.863Z,4.77
2022-10-13T14:05:56.943Z,5.20
2022-10-13T14:08:26.794Z,4.93
2022-10-13T14:10:59.369Z,4.60
2022-10-13T14:13:29.133Z,4.60
2022-10-13T14:16:02.559Z,4.53
2022-10-13T14:18:33.366Z,5.23
2022-10-13T14:21:08.444Z,4.83
2022-10-13T14:23:45.670Z,4.40
2022-10-13T14:26:18.194Z,5.17
2022-10-13T14:28:48.356Z,4.20
2022-10-13T14:31:18.334Z,5.20
2022-10-13T14:33:54.158Z,6.57
2022-10-13T14:36:27.503Z,5.87
2022-10-13T14:38:59.108Z,4.50
2022-10-13T14:41:32.467Z,5.33
2022-10-13T14:44:02.226Z,5.60
2022-10-13T14:46:32.042Z,4.70
2022-10-13T14:49:05.064Z,5.50
2022-10-13T14:51:36.147Z,4.27
2022-10-13T14:54:06.990Z,4.70
2022-10-13T14:56:39.430Z,5.27
2022-10-13T14:59:09.882Z,5.00
2022-10-13T15:01:41.992Z,4.77
2022-10-13T15:04:12.815Z,5.20
2022-10-13T15:06:43.884Z,4.50
2022-10-13T15:09:13.901Z,4.50
2022-10-13T15:11:46.289Z,4.60
2022-10-13T15:14:16.075Z,4.60
2022-10-13T15:16:45.887Z,5.10
2022-10-13T15:19:15.667Z,4.73
2022-10-13T15:21:45.402Z,5.00
2022-10-13T15:24:15.231Z,4.57
2022-10-13T15:26:48.834Z,5.10
2022-10-13T15:29:18.682Z,4.80
2022-10-13T15:31:48.511Z,4.30
2022-10-13T15:34:18.254Z,4.20
2022-10-13T15:36:48.267Z,4.30
2022-10-13T15:39:19.077Z,4.70
2022-10-13T15:41:52.452Z,4.93
2022-10-13T15:44:23.707Z,5.10
2022-10-13T15:47:07.923Z,4.53
2022-10-13T15:49:40.135Z,4.43
2022-10-13T15:52:10.034Z,5.40
2022-10-13T15:54:40.976Z,6.00
2022-10-13T15:57:14.588Z,5.27
2022-10-13T15:59:45.359Z,6.80
2022-10-13T16:02:15.245Z,6.50
2022-10-13T16:04:46.374Z,6.20
2022-10-13T16:07:18.378Z,5.67
2022-10-13T16:09:49.114Z,5.73
2022-10-13T16:12:22.110Z,5.80
2022-10-13T16:14:52.283Z,5.60
2022-10-13T16:17:22.050Z,5.53
2022-10-13T16:19:51.874Z,5.23
2022-10-13T16:22:23.150Z,5.40
2022-10-13T16:24:53.263Z,6.37
2022-10-13T16:27:25.665Z,7.27
2022-10-13T16:29:55.493Z,9.03
2022-10-13T16:32:26.312Z,9.33
2022-10-13T16:34:56.876Z,11.00
2022-10-13T16:37:26.660Z,9.83
2022-10-13T16:39:56.394Z,10.40
2022-10-13T16:42:28.814Z,8.07
2022-10-13T16:44:58.587Z,7.53
2022-10-13T16:47:31.074Z,7.63
2022-10-13T16:50:01.917Z,6.33
2022-10-13T16:52:32.260Z,6.53
2022-10-13T16:55:02.048Z,6.57
2022-10-13T16:57:35.613Z,6.37
2022-10-13T17:00:05.536Z,6.40
2022-10-13T17:02:37.461Z,7.07
2022-10-13T17:05:08.579Z,10.77
2022-10-13T17:07:39.395Z,9.60
2022-10-13T17:10:11.921Z,7.50
2022-10-13T17:12:44.455Z,7.97
2022-10-13T17:15:16.272Z,8.97
2022-10-13T17:17:47.190Z,7.20
2022-10-13T17:20:17.257Z,7.53
2022-10-13T17:22:48.098Z,8.20
2022-10-13T17:25:17.967Z,8.07
2022-10-13T17:27:51.334Z,9.07
2022-10-13T17:30:21.307Z,8.57
2022-10-13T17:32:52.194Z,9.00
2022-10-13T17:35:23.318Z,10.47
2022-10-13T17:37:54.776Z,9.70
2022-10-13T17:40:24.486Z,9.30
2022-10-13T17:42:57.986Z,10.20
2022-10-13T17:45:27.830Z,10.03
2022-10-13T17:47:59.930Z,9.20
2022-10-13T17:50:33.124Z,9.10
2022-10-13T17:53:04.998Z,9.63
2022-10-13T17:55:38.091Z,10.07
2022-10-13T17:58:11.378Z,9.70
2022-10-13T18:01:11.422Z,9.80
2022-10-13T18:03:31.978Z,11.07
2022-10-13T18:06:01.711Z,11.07
2022-10-13T18:08:35.571Z,11.73
2022-10-13T18:11:12.399Z,12.13
2022-10-13T18:13:47.458Z,12.30
2022-10-13T18:16:19.719Z,10.87
2022-10-13T18:18:51.301Z,11.40
2022-10-13T18:21:26.728Z,11.87
2022-10-13T18:23:58.054Z,12.57
2022-10-13T18:26:31.830Z,11.87
2022-10-13T18:29:06.905Z,13.27
2022-10-13T18:31:38.586Z,13.40
2022-10-13T18:34:11.942Z,13.33
2022-10-13T18:36:43.970Z,17.33
2022-10-13T18:39:16.309Z,20.10
2022-10-13T18:41:48.618Z,18.60
2022-10-13T18:44:25.115Z,16.67
2022-10-13T18:46:56.633Z,16.07
2022-10-13T18:49:31.219Z,15.90
2022-10-13T18:52:01.701Z,16.77
2022-10-13T18:54:33.069Z,16.87
2022-10-13T18:57:03.788Z,15.87
2022-10-13T18:59:38.743Z,16.53
2022-10-13T19:02:08.554Z,17.50
2022-10-13T19:04:39.481Z,17.57
2022-10-13T19:07:11.240Z,16.80
2022-10-13T19:09:40.968Z,17.70
2022-10-13T19:12:12.719Z,15.80
2022-10-13T19:14:46.619Z,16.60
2022-10-13T19:17:22.540Z,17.37
2022-10-13T19:19:52.536Z,15.57
2022-10-13T19:22:22.281Z,16.37
2022-10-13T19:24:52.027Z,15.90
2022-10-13T19:27:23.460Z,16.07
2022-10-13T19:29:57.084Z,14.97
2022-10-13T19:32:26.893Z,15.27
2022-10-13T19:34:57.637Z,15.87
2022-10-13T19:37:27.499Z,16.47
2022-10-13T19:39:57.185Z,16.17
2022-10-13T19:42:27.331Z,16.50
2022-10-13T19:45:02.211Z,15.40
2022-10-13T19:47:34.143Z,16.20
2022-10-13T19:50:03.970Z,16.17
2022-10-13T19:52:33.697Z,15.57
2022-10-13T19:55:03.800Z,15.60
2022-10-13T19:57:34.885Z,14.73
2022-10-13T20:00:09.447Z,14.77
2022-10-13T20:02:42.359Z,15.20
2022-10-13T20:05:13.136Z,14.37
2022-10-13T20:07:47.156Z,15.00
2022-10-13T20:10:16.989Z,15.00
2022-10-13T20:12:46.740Z,15.20
2022-10-13T20:15:21.148Z,15.33
2022-10-13T20:17:52.115Z,14.40
2022-10-13T20:20:22.612Z,13.67
2022-10-13T20:22:52.456Z,13.50
2022-10-13T20:25:24.215Z,13.30
2022-10-13T20:27:54.038Z,12.57
2022-10-13T20:30:26.474Z,12.23
2022-10-13T20:32:56.188Z,12.70
2022-10-13T20:35:30.604Z,13.70
2022-10-13T20:38:01.850Z,13.37
2022-10-13T20:40:31.924Z,12.63
2022-10-13T20:43:01.674Z,13.90
2022-10-13T20:45:34.052Z,13.90
2022-10-13T20:48:03.766Z,14.60
2022-10-13T20:50:33.745Z,14.10
2022-10-13T20:53:03.520Z,14.83
2022-10-13T20:55:38.068Z,14.00
2022-10-13T20:58:10.702Z,14.27
2022-10-13T21:00:45.726Z,14.47
2022-10-13T21:03:15.794Z,13.70
2022-10-13T21:05:46.726Z,11.77
2022-10-13T21:08:16.874Z,11.50
2022-10-13T21:10:50.551Z,12.27
2022-10-13T21:13:25.631Z,11.80
2022-10-13T21:15:57.958Z,11.53
2022-10-13T21:18:29.314Z,11.07
2022-10-13T21:21:05.331Z,12.40
2022-10-13T21:23:35.500Z,10.43
2022-10-13T21:26:06.046Z,10.87
2022-10-13T21:28:38.510Z,10.70
2022-10-13T21:31:13.418Z,10.60
2022-10-13T21:33:43.985Z,10.60
2022-10-13T21:36:16.351Z,11.13
2022-10-13T21:38:47.488Z,12.60
2022-10-13T21:41:17.815Z,11.27
2022-10-13T21:43:47.552Z,10.57
2022-10-13T21:46:22.147Z,12.37
2022-10-13T21:48:56.814Z,11.60
2022-10-13T21:51:29.627Z,12.50
2022-10-13T21:54:00.976Z,11.70
2022-10-13T21:56:33.611Z,11.90
2022-10-13T21:59:03.892Z,11.27
2022-10-13T22:01:37.083Z,12.50
2022-10-13T22:04:14.701Z,12.87
2022-10-13T22:06:45.019Z,14.20
2022-10-13T22:09:15.744Z,14.13
2022-10-13T22:11:46.529Z,14.30
2022-10-13T22:14:16.396Z,13.67
2022-10-13T22:16:50.989Z,13.73
2022-10-13T22:19:22.628Z,14.83
2022-10-13T22:21:52.740Z,13.70
2022-10-13T22:24:24.596Z,14.43
2022-10-13T22:26:54.363Z,14.40
2022-10-13T22:29:26.963Z,14.00
2022-10-13T22:32:00.966Z,13.97
2022-10-13T22:34:30.636Z,14.33
2022-10-13T22:37:00.329Z,14.33
2022-10-13T22:39:32.955Z,15.30
2022-10-13T22:42:11.111Z,15.87
2022-10-13T22:44:40.804Z,16.10
2022-10-13T22:47:13.118Z,14.87
2022-10-13T22:49:42.815Z,14.97
2022-10-13T22:52:12.698Z,16.10
2022-10-13T22:54:42.378Z,15.67
2022-10-13T22:57:12.051Z,16.33
2022-10-13T22:59:41.706Z,17.03
2022-10-13T23:02:14.023Z,16.93
2022-10-13T23:04:45.331Z,16.13
2022-10-13T23:07:15.022Z,17.40
2022-10-13T23:09:44.739Z,16.57
2022-10-13T23:12:14.422Z,18.07
2022-10-13T23:14:44.098Z,17.97
2022-10-13T23:17:19.017Z,18.73
2022-10-13T23:19:49.004Z,19.10
2022-10-13T23:22:18.689Z,19.00
2022-10-13T23:24:49.829Z,19.10
2022-10-13T23:27:20.022Z,17.60
2022-10-13T23:29:49.834Z,18.90
2022-10-13T23:32:22.114Z,19.03
2022-10-13T23:34:51.853Z,18.87
2022-10-13T23:37:22.730Z,18.20
2022-10-13T23:39:52.728Z,17.77
2022-10-13T23:42:22.360Z,16.23
2022-10-13T23:44:52.081Z,18.67
2022-10-13T23:47:24.492Z,18.67
2022-10-13T23:49:54.242Z,18.07
2022-10-13T23:52:24.200Z,18.20
2022-10-13T23:54:53.901Z,18.47
2022-10-13T23:57:24.553Z,20.03
2022-10-13T23:59:54.291Z,19.83
